sensor_id;sensor_type;location;lat;lon;timestamp;P1;durP1;ratioP1;P2;durP2;ratioP2
16242;SDS011;11719;51.052;6.982;2023-06-14T00:00:51;4.23;;;3.27;;
16242;SDS011;11719;51.052;6.982;2023-06-14T00:03:18;2.50;;;2.30;;
16242;SDS011;11719;51.052;6.982;2023-06-14T00:05:47;3.70;;;2.93;;
16242;SDS011;11719;51.052;6.982;2023-06-14T00:08:13;5.17;;;2.93;;
16242;SDS011;11719;51.052;6.982;2023-06-14T00:10:40;3.47;;;2.80;;
16242;SDS011;11719;51.052;6.982;2023-06-14T00:13:07;2.87;;;2.57;;
16242;SDS011;11719;51.052;6.982;2023-06-14T00:15:34;3.53;;;2.93;;
16242;SDS011;11719;51.052;6.982;2023-06-14T00:18:00;3.60;;;3.00;;
16242;SDS011;11719;51.052;6.982;2023-06-14T00:20:27;4.30;;;3.87;;
16242;SDS011;11719;51.052;6.982;2023-06-14T00:22:55;3.73;;;2.57;;
16242;SDS011;11719;51.052;6.982;2023-06-14T00:25:22;3.70;;;3.00;;
16242;SDS011;11719;51.052;6.982;2023-06-14T00:27:50;3.37;;;2.70;;
16242;SDS011;11719;51.052;6.982;2023-06-14T00:30:17;4.57;;;2.67;;
16242;SDS011;11719;51.052;6.982;2023-06-14T00:32:43;2.53;;;2.33;;
16242;SDS011;11719;51.052;6.982;2023-06-14T00:35:10;4.63;;;3.03;;
16242;SDS011;11719;51.052;6.982;2023-06-14T00:37:37;2.87;;;2.50;;
16242;SDS011;11719;51.052;6.982;2023-06-14T00:40:03;2.67;;;2.40;;
16242;SDS011;11719;51.052;6.982;2023-06-14T00:42:30;3.63;;;2.63;;
16242;SDS011;11719;51.052;6.982;2023-06-14T00:44:56;3.43;;;2.80;;
16242;SDS011;11719;51.052;6.982;2023-06-14T00:47:22;2.90;;;2.30;;
16242;SDS011;11719;51.052;6.982;2023-06-14T00:49:51;4.57;;;2.80;;
16242;SDS011;11719;51.052;6.982;2023-06-14T00:52:19;5.67;;;2.97;;
16242;SDS011;11719;51.052;6.982;2023-06-14T00:54:45;6.50;;;3.00;;
16242;SDS011;11719;51.052;6.982;2023-06-14T00:57:11;3.03;;;2.70;;
16242;SDS011;11719;51.052;6.982;2023-06-14T00:59:40;3.80;;;2.57;;
16242;SDS011;11719;51.052;6.982;2023-06-14T01:02:09;2.47;;;2.20;;
16242;SDS011;11719;51.052;6.982;2023-06-14T01:04:36;4.77;;;3.13;;
16242;SDS011;11719;51.052;6.982;2023-06-14T01:07:08;3.20;;;2.60;;
16242;SDS011;11719;51.052;6.982;2023-06-14T01:09:48;4.87;;;3.40;;
16242;SDS011;11719;51.052;6.982;2023-06-14T01:15:31;3.97;;;3.00;;
16242;SDS011;11719;51.052;6.982;2023-06-14T01:17:57;5.07;;;3.43;;
16242;SDS011;11719;51.052;6.982;2023-06-14T01:20:30;5.67;;;3.30;;
16242;SDS011;11719;51.052;6.982;2023-06-14T01:22:58;3.13;;;2.63;;
16242;SDS011;11719;51.052;6.982;2023-06-14T01:25:24;2.63;;;2.37;;
16242;SDS011;11719;51.052;6.982;2023-06-14T01:27:58;3.77;;;2.50;;
16242;SDS011;11719;51.052;6.982;2023-06-14T01:30:35;4.93;;;3.07;;
16242;SDS011;11719;51.052;6.982;2023-06-14T01:33:04;3.80;;;3.10;;
16242;SDS011;11719;51.052;6.982;2023-06-14T01:35:31;4.57;;;3.40;;
16242;SDS011;11719;51.052;6.982;2023-06-14T01:37:57;3.83;;;2.80;;
16242;SDS011;11719;51.052;6.982;2023-06-14T01:40:23;5.30;;;3.00;;
16242;SDS011;11719;51.052;6.982;2023-06-14T01:42:50;5.30;;;2.87;;
16242;SDS011;11719;51.052;6.982;2023-06-14T01:45:17;4.63;;;3.47;;
16242;SDS011;11719;51.052;6.982;2023-06-14T01:47:44;3.77;;;2.63;;
16242;SDS011;11719;51.052;6.982;2023-06-14T01:50:10;3.27;;;2.50;;
16242;SDS011;11719;51.052;6.982;2023-06-14T01:52:37;3.03;;;2.73;;
16242;SDS011;11719;51.052;6.982;2023-06-14T01:55:06;3.73;;;2.73;;
16242;SDS011;11719;51.052;6.982;2023-06-14T01:57:33;4.47;;;3.13;;
16242;SDS011;11719;51.052;6.982;2023-06-14T01:59:58;4.33;;;3.43;;
16242;SDS011;11719;51.052;6.982;2023-06-14T02:02:24;4.23;;;2.97;;
16242;SDS011;11719;51.052;6.982;2023-06-14T02:04:50;3.67;;;2.70;;
16242;SDS011;11719;51.052;6.982;2023-06-14T02:07:17;4.50;;;3.33;;
16242;SDS011;11719;51.052;6.982;2023-06-14T02:09:43;3.13;;;2.43;;
16242;SDS011;11719;51.052;6.982;2023-06-14T02:12:08;4.00;;;2.83;;
16242;SDS011;11719;51.052;6.982;2023-06-14T02:14:35;3.10;;;2.43;;
16242;SDS011;11719;51.052;6.982;2023-06-14T02:17:01;3.40;;;2.73;;
16242;SDS011;11719;51.052;6.982;2023-06-14T02:19:27;7.57;;;3.17;;
16242;SDS011;11719;51.052;6.982;2023-06-14T02:21:53;3.70;;;2.80;;
16242;SDS011;11719;51.052;6.982;2023-06-14T02:24:18;3.67;;;2.63;;
16242;SDS011;11719;51.052;6.982;2023-06-14T02:26:45;2.40;;;2.20;;
16242;SDS011;11719;51.052;6.982;2023-06-14T02:29:10;4.03;;;2.93;;
16242;SDS011;11719;51.052;6.982;2023-06-14T02:31:39;4.53;;;3.07;;
16242;SDS011;11719;51.052;6.982;2023-06-14T02:34:06;3.70;;;3.00;;
16242;SDS011;11719;51.052;6.982;2023-06-14T02:36:34;3.17;;;2.50;;
16242;SDS011;11719;51.052;6.982;2023-06-14T02:39:00;3.10;;;2.20;;
16242;SDS011;11719;51.052;6.982;2023-06-14T02:41:26;4.70;;;2.80;;
16242;SDS011;11719;51.052;6.982;2023-06-14T02:43:52;4.00;;;2.80;;
16242;SDS011;11719;51.052;6.982;2023-06-14T02:46:18;3.20;;;2.90;;
16242;SDS011;11719;51.052;6.982;2023-06-14T02:48:44;4.27;;;2.97;;
16242;SDS011;11719;51.052;6.982;2023-06-14T02:51:10;3.20;;;2.53;;
16242;SDS011;11719;51.052;6.982;2023-06-14T02:53:37;3.03;;;2.50;;
16242;SDS011;11719;51.052;6.982;2023-06-14T02:56:03;2.73;;;2.17;;
16242;SDS011;11719;51.052;6.982;2023-06-14T02:58:29;3.57;;;2.47;;
16242;SDS011;11719;51.052;6.982;2023-06-14T03:00:55;3.57;;;2.60;;
16242;SDS011;11719;51.052;6.982;2023-06-14T03:03:21;4.00;;;2.57;;
16242;SDS011;11719;51.052;6.982;2023-06-14T03:05:49;3.10;;;2.13;;
16242;SDS011;11719;51.052;6.982;2023-06-14T03:08:16;3.97;;;2.53;;
16242;SDS011;11719;51.052;6.982;2023-06-14T03:10:44;6.13;;;3.23;;
16242;SDS011;11719;51.052;6.982;2023-06-14T03:13:11;2.40;;;2.03;;
16242;SDS011;11719;51.052;6.982;2023-06-14T03:18:14;3.60;;;2.60;;
16242;SDS011;11719;51.052;6.982;2023-06-14T03:20:40;3.10;;;2.30;;
16242;SDS011;11719;51.052;6.982;2023-06-14T03:23:07;3.63;;;2.20;;
16242;SDS011;11719;51.052;6.982;2023-06-14T03:25:34;2.47;;;1.80;;
16242;SDS011;11719;51.052;6.982;2023-06-14T03:28:03;4.13;;;2.50;;
16242;SDS011;11719;51.052;6.982;2023-06-14T03:30:32;6.70;;;2.87;;
16242;SDS011;11719;51.052;6.982;2023-06-14T03:32:58;3.13;;;2.40;;
16242;SDS011;11719;51.052;6.982;2023-06-14T03:35:26;2.37;;;2.17;;
16242;SDS011;11719;51.052;6.982;2023-06-14T03:37:52;4.57;;;2.83;;
16242;SDS011;11719;51.052;6.982;2023-06-14T03:40:18;3.57;;;2.30;;
16242;SDS011;11719;51.052;6.982;2023-06-14T03:42:45;2.90;;;2.10;;
16242;SDS011;11719;51.052;6.982;2023-06-14T03:45:11;3.50;;;2.30;;
16242;SDS011;11719;51.052;6.982;2023-06-14T03:47:37;3.53;;;2.30;;
16242;SDS011;11719;51.052;6.982;2023-06-14T03:50:03;3.07;;;2.10;;
16242;SDS011;11719;51.052;6.982;2023-06-14T03:52:29;3.97;;;2.90;;
16242;SDS011;11719;51.052;6.982;2023-06-14T03:54:56;3.13;;;2.73;;
16242;SDS011;11719;51.052;6.982;2023-06-14T03:57:23;2.60;;;2.13;;
16242;SDS011;11719;51.052;6.982;2023-06-14T03:59:49;2.30;;;2.10;;
16242;SDS011;11719;51.052;6.982;2023-06-14T04:02:16;2.30;;;1.80;;
16242;SDS011;11719;51.052;6.982;2023-06-14T04:04:43;2.53;;;2.20;;
16242;SDS011;11719;51.052;6.982;2023-06-14T04:07:13;2.70;;;2.40;;
16242;SDS011;11719;51.052;6.982;2023-06-14T04:09:44;3.50;;;2.20;;
16242;SDS011;11719;51.052;6.982;2023-06-14T04:12:11;3.17;;;2.67;;
16242;SDS011;11719;51.052;6.982;2023-06-14T04:14:37;2.50;;;2.23;;
16242;SDS011;11719;51.052;6.982;2023-06-14T04:17:04;3.23;;;2.37;;
16242;SDS011;11719;51.052;6.982;2023-06-14T04:19:30;3.67;;;2.57;;
16242;SDS011;11719;51.052;6.982;2023-06-14T04:21:56;3.37;;;2.47;;
16242;SDS011;11719;51.052;6.982;2023-06-14T04:24:24;2.33;;;2.03;;
16242;SDS011;11719;51.052;6.982;2023-06-14T04:26:56;4.20;;;2.80;;
16242;SDS011;11719;51.052;6.982;2023-06-14T04:29:23;4.13;;;2.40;;
16242;SDS011;11719;51.052;6.982;2023-06-14T04:31:53;3.40;;;2.80;;
16242;SDS011;11719;51.052;6.982;2023-06-14T04:34:19;5.73;;;2.70;;
16242;SDS011;11719;51.052;6.982;2023-06-14T04:36:46;4.23;;;2.70;;
16242;SDS011;11719;51.052;6.982;2023-06-14T04:39:21;2.87;;;2.07;;
16242;SDS011;11719;51.052;6.982;2023-06-14T04:41:47;2.30;;;1.97;;
16242;SDS011;11719;51.052;6.982;2023-06-14T04:44:17;3.83;;;2.57;;
16242;SDS011;11719;51.052;6.982;2023-06-14T04:46:45;5.57;;;2.40;;
16242;SDS011;11719;51.052;6.982;2023-06-14T04:49:12;2.50;;;1.80;;
16242;SDS011;11719;51.052;6.982;2023-06-14T04:51:40;3.63;;;2.43;;
16242;SDS011;11719;51.052;6.982;2023-06-14T04:54:11;3.00;;;2.03;;
16242;SDS011;11719;51.052;6.982;2023-06-14T04:56:40;6.50;;;2.50;;
16242;SDS011;11719;51.052;6.982;2023-06-14T04:59:08;3.17;;;2.13;;
16242;SDS011;11719;51.052;6.982;2023-06-14T05:01:36;4.43;;;2.53;;
16242;SDS011;11719;51.052;6.982;2023-06-14T05:04:02;6.67;;;2.43;;
16242;SDS011;11719;51.052;6.982;2023-06-14T05:06:29;5.17;;;2.47;;
16242;SDS011;11719;51.052;6.982;2023-06-14T05:08:56;4.53;;;2.63;;
16242;SDS011;11719;51.052;6.982;2023-06-14T05:11:22;4.23;;;2.27;;
16242;SDS011;11719;51.052;6.982;2023-06-14T05:13:52;5.90;;;3.13;;
16242;SDS011;11719;51.052;6.982;2023-06-14T05:16:17;3.27;;;2.37;;
16242;SDS011;11719;51.052;6.982;2023-06-14T05:18:44;2.70;;;2.00;;
16242;SDS011;11719;51.052;6.982;2023-06-14T05:21:12;1.87;;;1.67;;
16242;SDS011;11719;51.052;6.982;2023-06-14T05:23:38;6.93;;;2.87;;
16242;SDS011;11719;51.052;6.982;2023-06-14T05:26:04;6.13;;;2.50;;
16242;SDS011;11719;51.052;6.982;2023-06-14T05:28:31;4.57;;;2.80;;
16242;SDS011;11719;51.052;6.982;2023-06-14T05:30:57;3.07;;;2.07;;
16242;SDS011;11719;51.052;6.982;2023-06-14T05:33:23;3.07;;;2.33;;
16242;SDS011;11719;51.052;6.982;2023-06-14T05:35:49;2.60;;;2.07;;
16242;SDS011;11719;51.052;6.982;2023-06-14T05:38:15;2.50;;;2.03;;
16242;SDS011;11719;51.052;6.982;2023-06-14T05:40:40;3.60;;;2.00;;
16242;SDS011;11719;51.052;6.982;2023-06-14T05:43:06;2.87;;;2.27;;
16242;SDS011;11719;51.052;6.982;2023-06-14T05:45:32;2.40;;;2.00;;
16242;SDS011;11719;51.052;6.982;2023-06-14T05:47:58;3.10;;;1.90;;
16242;SDS011;11719;51.052;6.982;2023-06-14T05:50:24;2.03;;;1.73;;
16242;SDS011;11719;51.052;6.982;2023-06-14T05:52:49;2.37;;;1.83;;
16242;SDS011;11719;51.052;6.982;2023-06-14T05:55:16;2.80;;;1.77;;
16242;SDS011;11719;51.052;6.982;2023-06-14T05:57:42;2.17;;;1.70;;
16242;SDS011;11719;51.052;6.982;2023-06-14T06:00:08;2.10;;;1.90;;
16242;SDS011;11719;51.052;6.982;2023-06-14T06:02:39;2.90;;;1.93;;
16242;SDS011;11719;51.052;6.982;2023-06-14T06:05:08;1.37;;;1.23;;
16242;SDS011;11719;51.052;6.982;2023-06-14T06:07:35;1.97;;;1.80;;
16242;SDS011;11719;51.052;6.982;2023-06-14T06:10:09;1.40;;;1.30;;
16242;SDS011;11719;51.052;6.982;2023-06-14T06:12:35;2.07;;;1.67;;
16242;SDS011;11719;51.052;6.982;2023-06-14T06:15:01;2.03;;;1.73;;
16242;SDS011;11719;51.052;6.982;2023-06-14T06:17:28;1.83;;;1.40;;
16242;SDS011;11719;51.052;6.982;2023-06-14T06:19:53;3.97;;;2.03;;
16242;SDS011;11719;51.052;6.982;2023-06-14T06:22:19;2.67;;;1.70;;
16242;SDS011;11719;51.052;6.982;2023-06-14T06:24:45;1.87;;;1.50;;
16242;SDS011;11719;51.052;6.982;2023-06-14T06:27:11;1.90;;;1.70;;
16242;SDS011;11719;51.052;6.982;2023-06-14T06:29:37;2.07;;;1.80;;
16242;SDS011;11719;51.052;6.982;2023-06-14T06:32:03;1.93;;;1.47;;
16242;SDS011;11719;51.052;6.982;2023-06-14T06:34:30;2.67;;;1.83;;
16242;SDS011;11719;51.052;6.982;2023-06-14T06:36:56;1.50;;;1.40;;
16242;SDS011;11719;51.052;6.982;2023-06-14T06:39:21;4.20;;;2.00;;
16242;SDS011;11719;51.052;6.982;2023-06-14T06:41:47;2.87;;;1.93;;
16242;SDS011;11719;51.052;6.982;2023-06-14T06:44:13;2.80;;;2.00;;
16242;SDS011;11719;51.052;6.982;2023-06-14T06:46:39;2.87;;;1.73;;
16242;SDS011;11719;51.052;6.982;2023-06-14T06:49:06;1.80;;;1.67;;
16242;SDS011;11719;51.052;6.982;2023-06-14T06:51:32;1.83;;;1.20;;
16242;SDS011;11719;51.052;6.982;2023-06-14T06:53:59;2.10;;;1.60;;
16242;SDS011;11719;51.052;6.982;2023-06-14T06:56:25;1.90;;;1.50;;
16242;SDS011;11719;51.052;6.982;2023-06-14T06:58:51;1.70;;;1.60;;
16242;SDS011;11719;51.052;6.982;2023-06-14T07:01:17;3.27;;;1.93;;
16242;SDS011;11719;51.052;6.982;2023-06-14T07:03:46;2.17;;;1.57;;
16242;SDS011;11719;51.052;6.982;2023-06-14T07:06:12;1.77;;;1.50;;
16242;SDS011;11719;51.052;6.982;2023-06-14T07:08:38;2.50;;;1.57;;
16242;SDS011;11719;51.052;6.982;2023-06-14T07:11:04;1.30;;;1.20;;
16242;SDS011;11719;51.052;6.982;2023-06-14T07:13:31;1.60;;;1.50;;
16242;SDS011;11719;51.052;6.982;2023-06-14T07:15:57;2.03;;;1.33;;
16242;SDS011;11719;51.052;6.982;2023-06-14T07:18:27;3.63;;;1.73;;
16242;SDS011;11719;51.052;6.982;2023-06-14T07:20:53;1.43;;;1.17;;
16242;SDS011;11719;51.052;6.982;2023-06-14T07:23:20;1.80;;;1.23;;
16242;SDS011;11719;51.052;6.982;2023-06-14T07:25:46;2.80;;;1.40;;
16242;SDS011;11719;51.052;6.982;2023-06-14T07:28:12;1.60;;;1.17;;
16242;SDS011;11719;51.052;6.982;2023-06-14T07:30:37;1.87;;;1.37;;
16242;SDS011;11719;51.052;6.982;2023-06-14T07:33:03;1.50;;;1.13;;
16242;SDS011;11719;51.052;6.982;2023-06-14T07:35:29;1.63;;;1.47;;
16242;SDS011;11719;51.052;6.982;2023-06-14T07:37:55;2.10;;;1.50;;
16242;SDS011;11719;51.052;6.982;2023-06-14T07:40:21;1.47;;;1.37;;
16242;SDS011;11719;51.052;6.982;2023-06-14T07:42:46;2.03;;;1.50;;
16242;SDS011;11719;51.052;6.982;2023-06-14T07:45:13;1.40;;;1.00;;
16242;SDS011;11719;51.052;6.982;2023-06-14T07:47:39;1.33;;;1.10;;
16242;SDS011;11719;51.052;6.982;2023-06-14T07:50:05;1.80;;;1.20;;
16242;SDS011;11719;51.052;6.982;2023-06-14T07:52:31;1.33;;;1.10;;
16242;SDS011;11719;51.052;6.982;2023-06-14T07:54:57;2.27;;;1.13;;
16242;SDS011;11719;51.052;6.982;2023-06-14T07:57:23;1.60;;;1.10;;
16242;SDS011;11719;51.052;6.982;2023-06-14T07:59:49;0.90;;;0.90;;
16242;SDS011;11719;51.052;6.982;2023-06-14T08:02:15;1.67;;;1.20;;
16242;SDS011;11719;51.052;6.982;2023-06-14T08:04:41;1.73;;;1.00;;
16242;SDS011;11719;51.052;6.982;2023-06-14T08:07:07;1.97;;;0.97;;
16242;SDS011;11719;51.052;6.982;2023-06-14T08:09:33;4.27;;;1.70;;
16242;SDS011;11719;51.052;6.982;2023-06-14T08:12:02;1.60;;;1.23;;
16242;SDS011;11719;51.052;6.982;2023-06-14T08:14:32;3.93;;;0.87;;
16242;SDS011;11719;51.052;6.982;2023-06-14T08:16:59;1.73;;;1.07;;
16242;SDS011;11719;51.052;6.982;2023-06-14T08:19:24;2.27;;;1.03;;
16242;SDS011;11719;51.052;6.982;2023-06-14T08:21:50;3.13;;;1.20;;
16242;SDS011;11719;51.052;6.982;2023-06-14T08:24:16;3.23;;;1.33;;
16242;SDS011;11719;51.052;6.982;2023-06-14T08:26:43;2.30;;;1.27;;
16242;SDS011;11719;51.052;6.982;2023-06-14T08:29:09;1.93;;;1.03;;
16242;SDS011;11719;51.052;6.982;2023-06-14T08:31:35;3.73;;;1.40;;
16242;SDS011;11719;51.052;6.982;2023-06-14T08:34:01;2.87;;;1.40;;
16242;SDS011;11719;51.052;6.982;2023-06-14T08:36:27;2.10;;;1.27;;
16242;SDS011;11719;51.052;6.982;2023-06-14T08:38:52;2.30;;;1.10;;
16242;SDS011;11719;51.052;6.982;2023-06-14T08:41:22;5.87;;;1.30;;
16242;SDS011;11719;51.052;6.982;2023-06-14T08:43:49;2.20;;;0.90;;
16242;SDS011;11719;51.052;6.982;2023-06-14T08:46:17;2.20;;;1.23;;
16242;SDS011;11719;51.052;6.982;2023-06-14T08:48:50;2.13;;;1.17;;
16242;SDS011;11719;51.052;6.982;2023-06-14T08:51:21;1.77;;;0.80;;
16242;SDS011;11719;51.052;6.982;2023-06-14T08:53:51;2.43;;;1.30;;
16242;SDS011;11719;51.052;6.982;2023-06-14T08:56:22;1.40;;;1.13;;
16242;SDS011;11719;51.052;6.982;2023-06-14T08:58:52;1.93;;;0.73;;
16242;SDS011;11719;51.052;6.982;2023-06-14T09:01:19;3.13;;;0.80;;
16242;SDS011;11719;51.052;6.982;2023-06-14T09:03:47;1.77;;;1.17;;
16242;SDS011;11719;51.052;6.982;2023-06-14T09:06:14;1.87;;;1.00;;
16242;SDS011;11719;51.052;6.982;2023-06-14T09:08:43;1.20;;;0.70;;
16242;SDS011;11719;51.052;6.982;2023-06-14T09:11:15;1.50;;;0.70;;
16242;SDS011;11719;51.052;6.982;2023-06-14T09:13:44;2.70;;;0.90;;
16242;SDS011;11719;51.052;6.982;2023-06-14T09:16:11;0.83;;;0.80;;
16242;SDS011;11719;51.052;6.982;2023-06-14T09:18:38;3.60;;;1.00;;
16242;SDS011;11719;51.052;6.982;2023-06-14T09:21:10;1.10;;;0.87;;
16242;SDS011;11719;51.052;6.982;2023-06-14T09:23:37;1.73;;;0.90;;
16242;SDS011;11719;51.052;6.982;2023-06-14T09:26:13;1.73;;;0.80;;
16242;SDS011;11719;51.052;6.982;2023-06-14T09:28:44;1.20;;;0.80;;
16242;SDS011;11719;51.052;6.982;2023-06-14T09:31:12;2.33;;;0.83;;
16242;SDS011;11719;51.052;6.982;2023-06-14T09:33:44;0.93;;;0.80;;
16242;SDS011;11719;51.052;6.982;2023-06-14T09:36:23;1.40;;;0.90;;
16242;SDS011;11719;51.052;6.982;2023-06-14T09:38:56;1.10;;;0.70;;
16242;SDS011;11719;51.052;6.982;2023-06-14T09:41:33;2.90;;;1.27;;
16242;SDS011;11719;51.052;6.982;2023-06-14T09:44:02;1.30;;;1.10;;
16242;SDS011;11719;51.052;6.982;2023-06-14T09:46:30;2.83;;;1.00;;
16242;SDS011;11719;51.052;6.982;2023-06-14T09:49:00;1.60;;;0.80;;
16242;SDS011;11719;51.052;6.982;2023-06-14T09:51:28;1.10;;;0.90;;
16242;SDS011;11719;51.052;6.982;2023-06-14T09:53:56;1.10;;;1.00;;
16242;SDS011;11719;51.052;6.982;2023-06-14T09:56:32;1.30;;;1.00;;
16242;SDS011;11719;51.052;6.982;2023-06-14T09:59:04;2.77;;;1.00;;
16242;SDS011;11719;51.052;6.982;2023-06-14T10:01:32;0.80;;;0.80;;
16242;SDS011;11719;51.052;6.982;2023-06-14T10:04:04;1.10;;;1.00;;
16242;SDS011;11719;51.052;6.982;2023-06-14T10:06:32;1.93;;;1.43;;
16242;SDS011;11719;51.052;6.982;2023-06-14T10:09:02;2.03;;;1.10;;
16242;SDS011;11719;51.052;6.982;2023-06-14T10:11:30;1.50;;;1.30;;
16242;SDS011;11719;51.052;6.982;2023-06-14T10:13:57;3.93;;;0.70;;
16242;SDS011;11719;51.052;6.982;2023-06-14T10:17:07;2.10;;;1.20;;
16242;SDS011;11719;51.052;6.982;2023-06-14T10:19:56;1.60;;;1.00;;
16242;SDS011;11719;51.052;6.982;2023-06-14T10:22:38;0.93;;;0.70;;
16242;SDS011;11719;51.052;6.982;2023-06-14T10:25:28;2.13;;;1.23;;
16242;SDS011;11719;51.052;6.982;2023-06-14T10:28:17;1.77;;;1.00;;
16242;SDS011;11719;51.052;6.982;2023-06-14T10:33:40;1.60;;;1.00;;
16242;SDS011;11719;51.052;6.982;2023-06-14T10:36:30;0.70;;;0.40;;
16242;SDS011;11719;51.052;6.982;2023-06-14T10:41:37;1.20;;;0.90;;
16242;SDS011;11719;51.052;6.982;2023-06-14T10:44:10;1.63;;;0.83;;
16242;SDS011;11719;51.052;6.982;2023-06-14T10:46:39;1.80;;;1.10;;
16242;SDS011;11719;51.052;6.982;2023-06-14T10:49:06;1.00;;;0.67;;
16242;SDS011;11719;51.052;6.982;2023-06-14T10:51:38;0.97;;;0.90;;
16242;SDS011;11719;51.052;6.982;2023-06-14T10:54:14;1.93;;;1.00;;
16242;SDS011;11719;51.052;6.982;2023-06-14T10:56:52;1.07;;;0.70;;
16242;SDS011;11719;51.052;6.982;2023-06-14T10:59:20;5.00;;;1.00;;
16242;SDS011;11719;51.052;6.982;2023-06-14T11:04:48;0.83;;;0.70;;
16242;SDS011;11719;51.052;6.982;2023-06-14T11:12:59;2.03;;;0.93;;
16242;SDS011;11719;51.052;6.982;2023-06-14T11:15:31;0.80;;;0.70;;
16242;SDS011;11719;51.052;6.982;2023-06-14T11:18:03;1.97;;;0.90;;
16242;SDS011;11719;51.052;6.982;2023-06-14T11:20:32;1.30;;;1.10;;
16242;SDS011;11719;51.052;6.982;2023-06-14T11:23:00;1.63;;;1.00;;
16242;SDS011;11719;51.052;6.982;2023-06-14T11:25:27;5.10;;;0.83;;
16242;SDS011;11719;51.052;6.982;2023-06-14T11:27:53;2.70;;;1.07;;
16242;SDS011;11719;51.052;6.982;2023-06-14T11:30:20;1.43;;;1.03;;
16242;SDS011;11719;51.052;6.982;2023-06-14T11:32:47;1.30;;;1.07;;
16242;SDS011;11719;51.052;6.982;2023-06-14T11:35:15;1.93;;;1.20;;
16242;SDS011;11719;51.052;6.982;2023-06-14T11:37:42;1.10;;;0.90;;
16242;SDS011;11719;51.052;6.982;2023-06-14T11:40:09;1.83;;;1.20;;
16242;SDS011;11719;51.052;6.982;2023-06-14T11:42:38;2.40;;;1.23;;
16242;SDS011;11719;51.052;6.982;2023-06-14T11:45:09;1.13;;;0.80;;
16242;SDS011;11719;51.052;6.982;2023-06-14T11:47:37;2.07;;;1.10;;
16242;SDS011;11719;51.052;6.982;2023-06-14T11:50:05;1.73;;;0.83;;
16242;SDS011;11719;51.052;6.982;2023-06-14T11:52:38;1.03;;;0.87;;
16242;SDS011;11719;51.052;6.982;2023-06-14T11:55:04;0.80;;;0.80;;
16242;SDS011;11719;51.052;6.982;2023-06-14T11:57:35;0.80;;;0.80;;
16242;SDS011;11719;51.052;6.982;2023-06-14T12:00:04;1.47;;;0.93;;
16242;SDS011;11719;51.052;6.982;2023-06-14T12:02:37;1.20;;;0.83;;
16242;SDS011;11719;51.052;6.982;2023-06-14T12:05:05;2.30;;;0.70;;
16242;SDS011;11719;51.052;6.982;2023-06-14T12:07:38;0.90;;;0.60;;
16242;SDS011;11719;51.052;6.982;2023-06-14T12:10:07;0.50;;;0.50;;
16242;SDS011;11719;51.052;6.982;2023-06-14T12:12:35;1.43;;;0.90;;
16242;SDS011;11719;51.052;6.982;2023-06-14T12:15:04;0.93;;;0.80;;
16242;SDS011;11719;51.052;6.982;2023-06-14T12:17:33;0.97;;;0.60;;
16242;SDS011;11719;51.052;6.982;2023-06-14T12:20:11;1.00;;;0.60;;
16242;SDS011;11719;51.052;6.982;2023-06-14T12:22:54;0.80;;;0.70;;
16242;SDS011;11719;51.052;6.982;2023-06-14T12:25:26;1.90;;;1.17;;
16242;SDS011;11719;51.052;6.982;2023-06-14T12:27:57;1.70;;;0.97;;
16242;SDS011;11719;51.052;6.982;2023-06-14T12:30:24;1.53;;;0.70;;
16242;SDS011;11719;51.052;6.982;2023-06-14T12:32:50;0.57;;;0.57;;
16242;SDS011;11719;51.052;6.982;2023-06-14T12:35:17;1.10;;;1.00;;
16242;SDS011;11719;51.052;6.982;2023-06-14T12:37:46;1.43;;;0.80;;
16242;SDS011;11719;51.052;6.982;2023-06-14T12:40:12;1.10;;;0.67;;
16242;SDS011;11719;51.052;6.982;2023-06-14T12:42:38;1.83;;;0.90;;
16242;SDS011;11719;51.052;6.982;2023-06-14T12:45:06;0.83;;;0.80;;
16242;SDS011;11719;51.052;6.982;2023-06-14T12:47:32;0.80;;;0.57;;
16242;SDS011;11719;51.052;6.982;2023-06-14T12:49:58;0.60;;;0.50;;
16242;SDS011;11719;51.052;6.982;2023-06-14T12:52:23;1.57;;;0.70;;
16242;SDS011;11719;51.052;6.982;2023-06-14T12:54:49;1.00;;;0.70;;
16242;SDS011;11719;51.052;6.982;2023-06-14T12:57:15;1.97;;;0.60;;
16242;SDS011;11719;51.052;6.982;2023-06-14T12:59:41;0.53;;;0.53;;
16242;SDS011;11719;51.052;6.982;2023-06-14T13:02:10;0.63;;;0.60;;
16242;SDS011;11719;51.052;6.982;2023-06-14T13:04:41;0.73;;;0.73;;
16242;SDS011;11719;51.052;6.982;2023-06-14T13:07:08;0.60;;;0.60;;
16242;SDS011;11719;51.052;6.982;2023-06-14T13:09:35;0.43;;;0.40;;
16242;SDS011;11719;51.052;6.982;2023-06-14T13:12:02;0.70;;;0.70;;
16242;SDS011;11719;51.052;6.982;2023-06-14T13:14:28;0.50;;;0.50;;
16242;SDS011;11719;51.052;6.982;2023-06-14T13:16:54;2.13;;;0.60;;
16242;SDS011;11719;51.052;6.982;2023-06-14T13:19:20;0.57;;;0.47;;
16242;SDS011;11719;51.052;6.982;2023-06-14T13:21:47;0.83;;;0.43;;
16242;SDS011;11719;51.052;6.982;2023-06-14T13:24:13;0.50;;;0.50;;
16242;SDS011;11719;51.052;6.982;2023-06-14T13:26:39;0.63;;;0.50;;
16242;SDS011;11719;51.052;6.982;2023-06-14T13:29:04;0.53;;;0.50;;
16242;SDS011;11719;51.052;6.982;2023-06-14T13:31:30;1.13;;;0.60;;
16242;SDS011;11719;51.052;6.982;2023-06-14T13:33:56;0.63;;;0.60;;
16242;SDS011;11719;51.052;6.982;2023-06-14T13:36:22;0.53;;;0.43;;
16242;SDS011;11719;51.052;6.982;2023-06-14T13:38:47;0.90;;;0.57;;
16242;SDS011;11719;51.052;6.982;2023-06-14T13:41:13;1.00;;;0.70;;
16242;SDS011;11719;51.052;6.982;2023-06-14T13:43:39;0.90;;;0.60;;
16242;SDS011;11719;51.052;6.982;2023-06-14T13:46:05;0.57;;;0.57;;
16242;SDS011;11719;51.052;6.982;2023-06-14T13:48:31;0.60;;;0.40;;
16242;SDS011;11719;51.052;6.982;2023-06-14T13:50:59;0.90;;;0.60;;
16242;SDS011;11719;51.052;6.982;2023-06-14T13:53:25;3.80;;;0.80;;
16242;SDS011;11719;51.052;6.982;2023-06-14T13:55:50;0.60;;;0.60;;
16242;SDS011;11719;51.052;6.982;2023-06-14T13:58:17;0.70;;;0.53;;
16242;SDS011;11719;51.052;6.982;2023-06-14T14:00:44;0.50;;;0.50;;
16242;SDS011;11719;51.052;6.982;2023-06-14T14:03:10;2.43;;;0.60;;
16242;SDS011;11719;51.052;6.982;2023-06-14T14:05:36;0.73;;;0.70;;
16242;SDS011;11719;51.052;6.982;2023-06-14T14:08:02;0.73;;;0.70;;
16242;SDS011;11719;51.052;6.982;2023-06-14T14:10:29;1.00;;;0.83;;
16242;SDS011;11719;51.052;6.982;2023-06-14T14:12:54;0.73;;;0.50;;
16242;SDS011;11719;51.052;6.982;2023-06-14T14:15:21;0.80;;;0.70;;
16242;SDS011;11719;51.052;6.982;2023-06-14T14:17:47;0.73;;;0.63;;
16242;SDS011;11719;51.052;6.982;2023-06-14T14:20:13;0.83;;;0.57;;
16242;SDS011;11719;51.052;6.982;2023-06-14T14:22:43;1.30;;;1.00;;
16242;SDS011;11719;51.052;6.982;2023-06-14T14:25:09;0.50;;;0.50;;
16242;SDS011;11719;51.052;6.982;2023-06-14T14:27:35;1.13;;;0.87;;
16242;SDS011;11719;51.052;6.982;2023-06-14T14:30:02;1.80;;;0.73;;
16242;SDS011;11719;51.052;6.982;2023-06-14T14:32:31;1.50;;;0.80;;
16242;SDS011;11719;51.052;6.982;2023-06-14T14:34:58;0.70;;;0.70;;
16242;SDS011;11719;51.052;6.982;2023-06-14T14:37:23;1.23;;;0.67;;
16242;SDS011;11719;51.052;6.982;2023-06-14T14:39:49;1.30;;;0.97;;
16242;SDS011;11719;51.052;6.982;2023-06-14T14:42:15;0.77;;;0.60;;
16242;SDS011;11719;51.052;6.982;2023-06-14T14:44:41;0.90;;;0.70;;
16242;SDS011;11719;51.052;6.982;2023-06-14T14:47:07;1.47;;;0.77;;
16242;SDS011;11719;51.052;6.982;2023-06-14T14:49:33;1.27;;;0.97;;
16242;SDS011;11719;51.052;6.982;2023-06-14T14:51:59;0.80;;;0.80;;
16242;SDS011;11719;51.052;6.982;2023-06-14T14:54:24;1.10;;;1.00;;
16242;SDS011;11719;51.052;6.982;2023-06-14T14:56:51;1.23;;;0.80;;
16242;SDS011;11719;51.052;6.982;2023-06-14T14:59:16;1.00;;;1.00;;
16242;SDS011;11719;51.052;6.982;2023-06-14T15:01:43;0.97;;;0.80;;
16242;SDS011;11719;51.052;6.982;2023-06-14T15:04:10;0.93;;;0.80;;
16242;SDS011;11719;51.052;6.982;2023-06-14T15:06:36;1.10;;;0.73;;
16242;SDS011;11719;51.052;6.982;2023-06-14T15:09:04;1.20;;;0.90;;
16242;SDS011;11719;51.052;6.982;2023-06-14T15:11:31;0.80;;;0.80;;